sensor_id;sensor_type;location;lat;lon;timestamp;P1;durP1;ratioP1;P2;durP2;ratioP2
16845;SDS011;8539;53.188;8.696;2023-07-20T00:02:24;2.30;;;2.10;;
16845;SDS011;8539;53.188;8.696;2023-07-20T00:04:50;2.40;;;2.20;;
16845;SDS011;8539;53.188;8.696;2023-07-20T00:07:16;3.75;;;2.25;;
16845;SDS011;8539;53.188;8.696;2023-07-20T00:09:43;2.35;;;1.77;;
16845;SDS011;8539;53.188;8.696;2023-07-20T00:12:09;2.88;;;2.67;;
16845;SDS011;8539;53.188;8.696;2023-07-20T00:14:35;3.90;;;2.38;;
16845;SDS011;8539;53.188;8.696;2023-07-20T00:17:02;5.07;;;2.35;;
16845;SDS011;8539;53.188;8.696;2023-07-20T00:19:28;3.45;;;2.50;;
16845;SDS011;8539;53.188;8.696;2023-07-20T00:21:55;2.75;;;2.55;;
16845;SDS011;8539;53.188;8.696;2023-07-20T00:24:23;6.78;;;2.70;;
16845;SDS011;8539;53.188;8.696;2023-07-20T00:26:49;3.70;;;2.72;;
16845;SDS011;8539;53.188;8.696;2023-07-20T00:29:16;3.38;;;2.70;;
16845;SDS011;8539;53.188;8.696;2023-07-20T00:31:42;3.03;;;2.53;;
16845;SDS011;8539;53.188;8.696;2023-07-20T00:34:09;3.60;;;2.40;;
16845;SDS011;8539;53.188;8.696;2023-07-20T00:36:35;3.40;;;2.38;;
16845;SDS011;8539;53.188;8.696;2023-07-20T00:39:02;8.27;;;2.97;;
16845;SDS011;8539;53.188;8.696;2023-07-20T00:41:29;2.30;;;1.88;;
16845;SDS011;8539;53.188;8.696;2023-07-20T00:43:57;2.25;;;1.85;;
16845;SDS011;8539;53.188;8.696;2023-07-20T00:46:23;1.90;;;1.75;;
16845;SDS011;8539;53.188;8.696;2023-07-20T00:48:50;2.53;;;1.98;;
16845;SDS011;8539;53.188;8.696;2023-07-20T00:51:18;1.83;;;1.38;;
16845;SDS011;8539;53.188;8.696;2023-07-20T00:53:45;3.22;;;1.80;;
16845;SDS011;8539;53.188;8.696;2023-07-20T00:56:15;4.07;;;1.70;;
16845;SDS011;8539;53.188;8.696;2023-07-20T00:58:42;2.35;;;1.67;;
16845;SDS011;8539;53.188;8.696;2023-07-20T01:01:08;2.72;;;2.40;;
16845;SDS011;8539;53.188;8.696;2023-07-20T01:03:34;3.53;;;1.75;;
16845;SDS011;8539;53.188;8.696;2023-07-20T01:11:23;1.30;;;1.20;;
16845;SDS011;8539;53.188;8.696;2023-07-20T01:13:56;2.53;;;1.50;;
16845;SDS011;8539;53.188;8.696;2023-07-20T01:16:23;3.10;;;1.67;;
16845;SDS011;8539;53.188;8.696;2023-07-20T01:18:50;3.90;;;2.00;;
16845;SDS011;8539;53.188;8.696;2023-07-20T01:21:24;2.58;;;2.05;;
16845;SDS011;8539;53.188;8.696;2023-07-20T01:32:06;3.13;;;1.80;;
16845;SDS011;8539;53.188;8.696;2023-07-20T01:34:35;2.83;;;1.83;;
16845;SDS011;8539;53.188;8.696;2023-07-20T01:37:02;2.88;;;1.48;;
16845;SDS011;8539;53.188;8.696;2023-07-20T01:39:30;11.55;;;3.28;;
16845;SDS011;8539;53.188;8.696;2023-07-20T01:41:57;2.00;;;1.58;;
16845;SDS011;8539;53.188;8.696;2023-07-20T01:44:23;4.00;;;1.60;;
16845;SDS011;8539;53.188;8.696;2023-07-20T01:46:49;3.15;;;1.77;;
16845;SDS011;8539;53.188;8.696;2023-07-20T01:49:15;1.90;;;1.50;;
16845;SDS011;8539;53.188;8.696;2023-07-20T01:54:39;1.15;;;1.05;;
16845;SDS011;8539;53.188;8.696;2023-07-20T01:57:05;1.63;;;1.52;;
16845;SDS011;8539;53.188;8.696;2023-07-20T01:59:31;23.58;;;3.28;;
16845;SDS011;8539;53.188;8.696;2023-07-20T02:01:57;1.50;;;1.40;;
16845;SDS011;8539;53.188;8.696;2023-07-20T02:04:23;1.27;;;1.15;;
16845;SDS011;8539;53.188;8.696;2023-07-20T02:06:49;2.95;;;1.25;;
16845;SDS011;8539;53.188;8.696;2023-07-20T02:09:15;5.00;;;1.67;;
16845;SDS011;8539;53.188;8.696;2023-07-20T02:11:41;2.85;;;1.30;;
16845;SDS011;8539;53.188;8.696;2023-07-20T02:14:07;1.40;;;1.15;;
16845;SDS011;8539;53.188;8.696;2023-07-20T02:16:33;1.65;;;1.15;;
16845;SDS011;8539;53.188;8.696;2023-07-20T02:18:59;2.35;;;1.40;;
16845;SDS011;8539;53.188;8.696;2023-07-20T02:21:25;0.85;;;0.85;;
16845;SDS011;8539;53.188;8.696;2023-07-20T02:23:51;3.75;;;1.33;;
16845;SDS011;8539;53.188;8.696;2023-07-20T02:26:17;4.50;;;1.40;;
16845;SDS011;8539;53.188;8.696;2023-07-20T02:28:43;2.25;;;1.50;;
16845;SDS011;8539;53.188;8.696;2023-07-20T02:31:09;9.18;;;1.63;;
16845;SDS011;8539;53.188;8.696;2023-07-20T02:33:35;2.08;;;1.40;;
16845;SDS011;8539;53.188;8.696;2023-07-20T02:36:02;1.70;;;1.35;;
16845;SDS011;8539;53.188;8.696;2023-07-20T02:38:29;1.70;;;1.40;;
16845;SDS011;8539;53.188;8.696;2023-07-20T02:40:55;1.77;;;1.63;;
16845;SDS011;8539;53.188;8.696;2023-07-20T02:43:23;1.50;;;1.40;;
16845;SDS011;8539;53.188;8.696;2023-07-20T02:45:50;1.75;;;1.60;;
16845;SDS011;8539;53.188;8.696;2023-07-20T02:48:16;6.10;;;1.77;;
16845;SDS011;8539;53.188;8.696;2023-07-20T02:50:43;4.53;;;1.60;;
16845;SDS011;8539;53.188;8.696;2023-07-20T02:53:09;2.03;;;1.40;;
16845;SDS011;8539;53.188;8.696;2023-07-20T02:55:35;2.70;;;1.80;;
16845;SDS011;8539;53.188;8.696;2023-07-20T02:58:02;2.67;;;1.73;;
16845;SDS011;8539;53.188;8.696;2023-07-20T03:00:28;3.22;;;1.95;;
16845;SDS011;8539;53.188;8.696;2023-07-20T03:02:54;5.78;;;1.70;;
16845;SDS011;8539;53.188;8.696;2023-07-20T03:05:24;2.47;;;2.10;;
16845;SDS011;8539;53.188;8.696;2023-07-20T03:07:53;2.30;;;2.10;;
16845;SDS011;8539;53.188;8.696;2023-07-20T03:10:20;2.33;;;2.13;;
16845;SDS011;8539;53.188;8.696;2023-07-20T03:12:46;4.10;;;2.13;;
16845;SDS011;8539;53.188;8.696;2023-07-20T03:15:12;2.67;;;2.47;;
16845;SDS011;8539;53.188;8.696;2023-07-20T03:17:38;2.95;;;2.30;;
16845;SDS011;8539;53.188;8.696;2023-07-20T03:20:04;2.63;;;2.30;;
16845;SDS011;8539;53.188;8.696;2023-07-20T03:22:34;2.78;;;2.50;;
16845;SDS011;8539;53.188;8.696;2023-07-20T03:25:01;2.50;;;2.10;;
16845;SDS011;8539;53.188;8.696;2023-07-20T03:27:27;3.03;;;2.47;;
16845;SDS011;8539;53.188;8.696;2023-07-20T03:29:56;5.43;;;2.33;;
16845;SDS011;8539;53.188;8.696;2023-07-20T03:32:22;3.40;;;2.20;;
16845;SDS011;8539;53.188;8.696;2023-07-20T03:34:48;2.83;;;2.53;;
16845;SDS011;8539;53.188;8.696;2023-07-20T03:37:14;3.60;;;3.25;;
16845;SDS011;8539;53.188;8.696;2023-07-20T03:39:40;4.05;;;2.40;;
16845;SDS011;8539;53.188;8.696;2023-07-20T03:42:07;2.90;;;2.70;;
16845;SDS011;8539;53.188;8.696;2023-07-20T03:44:33;4.60;;;2.53;;
16845;SDS011;8539;53.188;8.696;2023-07-20T03:46:59;3.63;;;2.50;;
16845;SDS011;8539;53.188;8.696;2023-07-20T03:49:26;3.13;;;2.78;;
16845;SDS011;8539;53.188;8.696;2023-07-20T03:51:52;4.55;;;2.60;;
16845;SDS011;8539;53.188;8.696;2023-07-20T03:54:18;2.67;;;2.47;;
16845;SDS011;8539;53.188;8.696;2023-07-20T03:56:44;2.60;;;2.33;;
16845;SDS011;8539;53.188;8.696;2023-07-20T03:59:11;3.95;;;2.33;;
16845;SDS011;8539;53.188;8.696;2023-07-20T04:01:37;7.88;;;3.15;;
16845;SDS011;8539;53.188;8.696;2023-07-20T04:04:08;2.83;;;2.50;;
16845;SDS011;8539;53.188;8.696;2023-07-20T04:06:34;2.95;;;2.65;;
16845;SDS011;8539;53.188;8.696;2023-07-20T04:09:00;2.92;;;2.72;;
16845;SDS011;8539;53.188;8.696;2023-07-20T04:11:26;4.28;;;2.85;;
16845;SDS011;8539;53.188;8.696;2023-07-20T04:13:52;4.82;;;2.42;;
16845;SDS011;8539;53.188;8.696;2023-07-20T04:16:18;3.35;;;2.70;;
16845;SDS011;8539;53.188;8.696;2023-07-20T04:18:45;4.57;;;2.92;;
16845;SDS011;8539;53.188;8.696;2023-07-20T04:21:11;4.18;;;2.78;;
16845;SDS011;8539;53.188;8.696;2023-07-20T04:23:37;3.47;;;2.88;;
16845;SDS011;8539;53.188;8.696;2023-07-20T04:26:03;2.80;;;2.58;;
16845;SDS011;8539;53.188;8.696;2023-07-20T04:28:29;3.33;;;2.33;;
16845;SDS011;8539;53.188;8.696;2023-07-20T04:30:58;2.78;;;2.47;;
16845;SDS011;8539;53.188;8.696;2023-07-20T04:33:38;2.63;;;2.42;;
16845;SDS011;8539;53.188;8.696;2023-07-20T04:36:05;4.53;;;2.47;;
16845;SDS011;8539;53.188;8.696;2023-07-20T04:38:31;3.78;;;1.95;;
16845;SDS011;8539;53.188;8.696;2023-07-20T04:40:58;4.35;;;2.28;;
16845;SDS011;8539;53.188;8.696;2023-07-20T04:43:24;3.00;;;2.80;;
16845;SDS011;8539;53.188;8.696;2023-07-20T04:45:50;4.03;;;2.63;;
16845;SDS011;8539;53.188;8.696;2023-07-20T04:48:16;6.53;;;2.90;;
16845;SDS011;8539;53.188;8.696;2023-07-20T04:50:44;3.42;;;2.63;;
16845;SDS011;8539;53.188;8.696;2023-07-20T04:53:14;5.95;;;3.17;;
16845;SDS011;8539;53.188;8.696;2023-07-20T04:55:40;2.75;;;2.45;;
16845;SDS011;8539;53.188;8.696;2023-07-20T04:58:12;4.68;;;2.80;;
16845;SDS011;8539;53.188;8.696;2023-07-20T05:00:38;3.78;;;2.90;;
16845;SDS011;8539;53.188;8.696;2023-07-20T05:03:04;2.80;;;2.55;;
16845;SDS011;8539;53.188;8.696;2023-07-20T05:05:31;4.60;;;3.17;;
16845;SDS011;8539;53.188;8.696;2023-07-20T05:07:57;4.75;;;3.08;;
16845;SDS011;8539;53.188;8.696;2023-07-20T05:10:23;2.90;;;2.60;;
16845;SDS011;8539;53.188;8.696;2023-07-20T05:12:49;3.97;;;2.70;;
16845;SDS011;8539;53.188;8.696;2023-07-20T05:15:16;3.88;;;3.15;;
16845;SDS011;8539;53.188;8.696;2023-07-20T05:17:42;3.80;;;2.97;;
16845;SDS011;8539;53.188;8.696;2023-07-20T05:20:08;3.45;;;2.58;;
16845;SDS011;8539;53.188;8.696;2023-07-20T05:22:38;3.15;;;2.85;;
16845;SDS011;8539;53.188;8.696;2023-07-20T05:25:08;3.50;;;2.85;;
16845;SDS011;8539;53.188;8.696;2023-07-20T05:27:38;4.57;;;2.40;;
16845;SDS011;8539;53.188;8.696;2023-07-20T05:30:08;6.60;;;2.58;;
16845;SDS011;8539;53.188;8.696;2023-07-20T05:32:34;4.47;;;2.78;;
16845;SDS011;8539;53.188;8.696;2023-07-20T05:35:00;2.70;;;2.08;;
16845;SDS011;8539;53.188;8.696;2023-07-20T05:37:27;6.43;;;2.10;;
16845;SDS011;8539;53.188;8.696;2023-07-20T05:39:53;2.33;;;2.13;;
16845;SDS011;8539;53.188;8.696;2023-07-20T05:42:19;3.92;;;1.88;;
16845;SDS011;8539;53.188;8.696;2023-07-20T05:44:45;2.03;;;1.83;;
16845;SDS011;8539;53.188;8.696;2023-07-20T05:47:13;1.98;;;1.65;;
16845;SDS011;8539;53.188;8.696;2023-07-20T05:49:39;1.35;;;1.10;;
16845;SDS011;8539;53.188;8.696;2023-07-20T05:52:06;2.17;;;1.50;;
16845;SDS011;8539;53.188;8.696;2023-07-20T05:54:32;4.18;;;1.40;;
16845;SDS011;8539;53.188;8.696;2023-07-20T05:56:58;3.13;;;1.15;;
16845;SDS011;8539;53.188;8.696;2023-07-20T05:59:24;2.63;;;1.20;;
16845;SDS011;8539;53.188;8.696;2023-07-20T06:01:53;2.22;;;1.27;;
16845;SDS011;8539;53.188;8.696;2023-07-20T06:04:19;2.08;;;1.30;;
16845;SDS011;8539;53.188;8.696;2023-07-20T06:06:45;0.85;;;0.82;;
16845;SDS011;8539;53.188;8.696;2023-07-20T06:09:12;4.20;;;0.90;;
16845;SDS011;8539;53.188;8.696;2023-07-20T06:11:38;2.00;;;1.05;;
16845;SDS011;8539;53.188;8.696;2023-07-20T06:14:05;4.60;;;0.80;;
16845;SDS011;8539;53.188;8.696;2023-07-20T06:16:31;1.42;;;1.02;;
16845;SDS011;8539;53.188;8.696;2023-07-20T06:18:57;1.52;;;1.30;;
16845;SDS011;8539;53.188;8.696;2023-07-20T06:21:23;8.27;;;2.15;;
16845;SDS011;8539;53.188;8.696;2023-07-20T06:23:49;1.40;;;1.30;;
16845;SDS011;8539;53.188;8.696;2023-07-20T06:26:15;2.55;;;1.10;;
16845;SDS011;8539;53.188;8.696;2023-07-20T06:28:42;2.47;;;1.13;;
16845;SDS011;8539;53.188;8.696;2023-07-20T06:31:08;2.05;;;1.10;;
16845;SDS011;8539;53.188;8.696;2023-07-20T06:33:34;1.88;;;1.00;;
16845;SDS011;8539;53.188;8.696;2023-07-20T06:36:00;0.82;;;0.80;;
16845;SDS011;8539;53.188;8.696;2023-07-20T06:38:26;4.93;;;1.13;;
16845;SDS011;8539;53.188;8.696;2023-07-20T06:40:52;3.90;;;0.98;;
16845;SDS011;8539;53.188;8.696;2023-07-20T06:43:19;1.10;;;0.60;;
16845;SDS011;8539;53.188;8.696;2023-07-20T06:45:50;3.90;;;0.88;;
16845;SDS011;8539;53.188;8.696;2023-07-20T06:48:18;0.80;;;0.80;;
16845;SDS011;8539;53.188;8.696;2023-07-20T06:50:44;1.05;;;0.70;;
16845;SDS011;8539;53.188;8.696;2023-07-20T06:53:10;4.30;;;0.95;;
16845;SDS011;8539;53.188;8.696;2023-07-20T06:55:35;1.45;;;0.85;;
16845;SDS011;8539;53.188;8.696;2023-07-20T06:58:01;1.85;;;1.23;;
16845;SDS011;8539;53.188;8.696;2023-07-20T07:00:28;5.13;;;1.30;;
16845;SDS011;8539;53.188;8.696;2023-07-20T07:02:54;1.35;;;0.95;;
16845;SDS011;8539;53.188;8.696;2023-07-20T07:05:20;3.20;;;1.10;;
16845;SDS011;8539;53.188;8.696;2023-07-20T07:07:46;1.83;;;0.80;;
16845;SDS011;8539;53.188;8.696;2023-07-20T07:10:13;3.10;;;1.10;;
16845;SDS011;8539;53.188;8.696;2023-07-20T07:12:39;2.17;;;1.17;;
16845;SDS011;8539;53.188;8.696;2023-07-20T07:15:05;1.25;;;0.90;;
16845;SDS011;8539;53.188;8.696;2023-07-20T07:17:32;2.60;;;1.17;;
16845;SDS011;8539;53.188;8.696;2023-07-20T07:19:58;3.67;;;1.13;;
16845;SDS011;8539;53.188;8.696;2023-07-20T07:22:24;2.55;;;0.73;;
16845;SDS011;8539;53.188;8.696;2023-07-20T07:24:51;2.15;;;1.38;;
16845;SDS011;8539;53.188;8.696;2023-07-20T07:27:17;2.30;;;0.88;;
16845;SDS011;8539;53.188;8.696;2023-07-20T07:29:43;3.00;;;1.10;;
16845;SDS011;8539;53.188;8.696;2023-07-20T07:32:10;2.65;;;1.33;;
16845;SDS011;8539;53.188;8.696;2023-07-20T07:34:36;4.85;;;1.30;;
16845;SDS011;8539;53.188;8.696;2023-07-20T07:37:03;2.92;;;0.95;;
16845;SDS011;8539;53.188;8.696;2023-07-20T07:39:30;4.65;;;1.35;;
16845;SDS011;8539;53.188;8.696;2023-07-20T07:41:56;2.30;;;1.20;;
16845;SDS011;8539;53.188;8.696;2023-07-20T07:44:26;1.90;;;1.20;;
16845;SDS011;8539;53.188;8.696;2023-07-20T07:46:52;2.08;;;1.45;;
16845;SDS011;8539;53.188;8.696;2023-07-20T07:49:19;5.35;;;1.98;;
16845;SDS011;8539;53.188;8.696;2023-07-20T07:51:45;3.58;;;1.60;;
16845;SDS011;8539;53.188;8.696;2023-07-20T07:54:11;4.65;;;1.85;;
16845;SDS011;8539;53.188;8.696;2023-07-20T07:56:37;3.97;;;1.55;;
16845;SDS011;8539;53.188;8.696;2023-07-20T07:59:03;3.83;;;1.48;;
16845;SDS011;8539;53.188;8.696;2023-07-20T08:01:30;4.53;;;1.55;;
16845;SDS011;8539;53.188;8.696;2023-07-20T08:03:56;4.32;;;2.10;;
16845;SDS011;8539;53.188;8.696;2023-07-20T08:06:22;7.68;;;1.88;;
16845;SDS011;8539;53.188;8.696;2023-07-20T08:08:49;1.70;;;1.30;;
16845;SDS011;8539;53.188;8.696;2023-07-20T08:11:16;4.43;;;1.67;;
16845;SDS011;8539;53.188;8.696;2023-07-20T08:13:43;6.45;;;1.70;;
16845;SDS011;8539;53.188;8.696;2023-07-20T08:16:09;3.03;;;1.95;;
16845;SDS011;8539;53.188;8.696;2023-07-20T08:18:35;5.50;;;1.77;;
16845;SDS011;8539;53.188;8.696;2023-07-20T08:21:01;4.32;;;2.00;;
16845;SDS011;8539;53.188;8.696;2023-07-20T08:23:28;2.17;;;1.65;;
16845;SDS011;8539;53.188;8.696;2023-07-20T08:25:55;4.20;;;1.85;;
16845;SDS011;8539;53.188;8.696;2023-07-20T08:28:21;3.00;;;2.00;;
16845;SDS011;8539;53.188;8.696;2023-07-20T08:30:50;6.32;;;2.10;;
16845;SDS011;8539;53.188;8.696;2023-07-20T08:33:22;3.28;;;1.67;;
16845;SDS011;8539;53.188;8.696;2023-07-20T08:35:56;1.90;;;1.52;;
16845;SDS011;8539;53.188;8.696;2023-07-20T08:38:25;4.60;;;2.05;;
16845;SDS011;8539;53.188;8.696;2023-07-20T08:40:52;3.47;;;1.77;;
16845;SDS011;8539;53.188;8.696;2023-07-20T08:43:21;4.68;;;1.67;;
16845;SDS011;8539;53.188;8.696;2023-07-20T08:46:01;6.57;;;1.83;;
16845;SDS011;8539;53.188;8.696;2023-07-20T08:48:29;4.72;;;2.00;;
16845;SDS011;8539;53.188;8.696;2023-07-20T08:50:56;9.48;;;2.13;;
16845;SDS011;8539;53.188;8.696;2023-07-20T08:53:25;3.00;;;2.13;;
16845;SDS011;8539;53.188;8.696;2023-07-20T08:55:54;3.17;;;1.48;;
16845;SDS011;8539;53.188;8.696;2023-07-20T08:58:21;2.58;;;2.00;;
16845;SDS011;8539;53.188;8.696;2023-07-20T09:00:49;7.20;;;1.73;;
16845;SDS011;8539;53.188;8.696;2023-07-20T09:03:16;3.75;;;2.20;;
16845;SDS011;8539;53.188;8.696;2023-07-20T09:05:42;5.20;;;2.30;;
16845;SDS011;8539;53.188;8.696;2023-07-20T09:08:10;2.13;;;1.75;;
16845;SDS011;8539;53.188;8.696;2023-07-20T09:10:36;7.20;;;2.85;;
16845;SDS011;8539;53.188;8.696;2023-07-20T09:13:02;2.60;;;1.60;;
16845;SDS011;8539;53.188;8.696;2023-07-20T09:15:28;4.78;;;2.20;;
16845;SDS011;8539;53.188;8.696;2023-07-20T09:17:55;9.93;;;2.25;;
16845;SDS011;8539;53.188;8.696;2023-07-20T09:20:21;4.50;;;2.15;;
16845;SDS011;8539;53.188;8.696;2023-07-20T09:22:48;3.10;;;1.70;;
16845;SDS011;8539;53.188;8.696;2023-07-20T09:25:17;2.83;;;1.80;;
16845;SDS011;8539;53.188;8.696;2023-07-20T09:27:46;2.65;;;1.40;;
16845;SDS011;8539;53.188;8.696;2023-07-20T09:30:13;5.22;;;1.80;;
16845;SDS011;8539;53.188;8.696;2023-07-20T09:35:21;6.47;;;2.47;;
16845;SDS011;8539;53.188;8.696;2023-07-20T09:37:53;2.97;;;1.90;;
16845;SDS011;8539;53.188;8.696;2023-07-20T09:40:26;7.95;;;2.05;;
16845;SDS011;8539;53.188;8.696;2023-07-20T09:45:41;5.85;;;2.03;;
16845;SDS011;8539;53.188;8.696;2023-07-20T09:48:07;7.90;;;1.90;;
16845;SDS011;8539;53.188;8.696;2023-07-20T09:50:56;2.20;;;1.50;;
16845;SDS011;8539;53.188;8.696;2023-07-20T09:53:21;4.25;;;1.85;;
16845;SDS011;8539;53.188;8.696;2023-07-20T09:55:50;5.22;;;2.55;;
16845;SDS011;8539;53.188;8.696;2023-07-20T09:58:18;3.38;;;1.90;;
16845;SDS011;8539;53.188;8.696;2023-07-20T10:00:45;1.90;;;1.40;;
16845;SDS011;8539;53.188;8.696;2023-07-20T10:03:19;6.32;;;2.22;;
16845;SDS011;8539;53.188;8.696;2023-07-20T10:05:47;2.67;;;1.95;;
16845;SDS011;8539;53.188;8.696;2023-07-20T10:08:17;4.85;;;1.83;;
16845;SDS011;8539;53.188;8.696;2023-07-20T10:10:46;4.15;;;1.95;;
16845;SDS011;8539;53.188;8.696;2023-07-20T10:13:17;5.40;;;2.08;;
16845;SDS011;8539;53.188;8.696;2023-07-20T10:21:40;1.90;;;1.35;;
16845;SDS011;8539;53.188;8.696;2023-07-20T10:24:10;5.18;;;1.67;;
16845;SDS011;8539;53.188;8.696;2023-07-20T10:26:38;2.78;;;1.55;;
16845;SDS011;8539;53.188;8.696;2023-07-20T10:29:04;2.67;;;1.58;;
16845;SDS011;8539;53.188;8.696;2023-07-20T10:31:31;4.28;;;1.60;;
16845;SDS011;8539;53.188;8.696;2023-07-20T10:33:58;5.20;;;2.30;;
16845;SDS011;8539;53.188;8.696;2023-07-20T10:36:26;3.15;;;1.42;;
16845;SDS011;8539;53.188;8.696;2023-07-20T10:38:54;5.00;;;1.77;;
16845;SDS011;8539;53.188;8.696;2023-07-20T10:41:22;2.33;;;1.30;;
16845;SDS011;8539;53.188;8.696;2023-07-20T10:43:57;4.75;;;1.50;;
16845;SDS011;8539;53.188;8.696;2023-07-20T10:46:47;3.05;;;1.50;;
16845;SDS011;8539;53.188;8.696;2023-07-20T10:52:07;2.60;;;1.70;;
16845;SDS011;8539;53.188;8.696;2023-07-20T10:54:46;4.28;;;1.83;;
16845;SDS011;8539;53.188;8.696;2023-07-20T10:57:29;4.78;;;1.45;;
16845;SDS011;8539;53.188;8.696;2023-07-20T11:00:07;2.13;;;1.23;;
16845;SDS011;8539;53.188;8.696;2023-07-20T11:02:43;2.83;;;1.25;;
16845;SDS011;8539;53.188;8.696;2023-07-20T11:05:32;3.75;;;1.77;;
16845;SDS011;8539;53.188;8.696;2023-07-20T11:08:09;2.72;;;0.95;;
16845;SDS011;8539;53.188;8.696;2023-07-20T11:10:37;2.17;;;0.88;;
16845;SDS011;8539;53.188;8.696;2023-07-20T11:16:05;5.82;;;0.98;;
16845;SDS011;8539;53.188;8.696;2023-07-20T11:18:32;2.88;;;1.08;;
16845;SDS011;8539;53.188;8.696;2023-07-20T11:21:00;5.63;;;1.40;;
16845;SDS011;8539;53.188;8.696;2023-07-20T11:23:29;2.95;;;1.27;;
16845;SDS011;8539;53.188;8.696;2023-07-20T11:25:57;5.15;;;1.20;;
16845;SDS011;8539;53.188;8.696;2023-07-20T11:28:25;3.90;;;1.42;;
16845;SDS011;8539;53.188;8.696;2023-07-20T11:30:52;4.38;;;1.50;;
16845;SDS011;8539;53.188;8.696;2023-07-20T11:33:19;2.88;;;1.23;;
16845;SDS011;8539;53.188;8.696;2023-07-20T11:35:45;4.65;;;1.00;;
16845;SDS011;8539;53.188;8.696;2023-07-20T11:38:16;3.63;;;1.20;;
16845;SDS011;8539;53.188;8.696;2023-07-20T11:40:43;1.75;;;1.00;;
16845;SDS011;8539;53.188;8.696;2023-07-20T11:43:11;3.00;;;1.33;;
16845;SDS011;8539;53.188;8.696;2023-07-20T11:45:38;1.48;;;0.82;;
16845;SDS011;8539;53.188;8.696;2023-07-20T11:48:04;1.77;;;1.00;;
16845;SDS011;8539;53.188;8.696;2023-07-20T11:50:31;2.40;;;1.17;;
16845;SDS011;8539;53.188;8.696;2023-07-20T11:52:57;2.63;;;1.30;;
16845;SDS011;8539;53.188;8.696;2023-07-20T11:55:23;2.08;;;0.98;;
16845;SDS011;8539;53.188;8.696;2023-07-20T11:58:05;3.53;;;1.17;;
16845;SDS011;8539;53.188;8.696;2023-07-20T12:00:33;2.90;;;1.10;;
16845;SDS011;8539;53.188;8.696;2023-07-20T12:03:00;1.50;;;1.00;;
16845;SDS011;8539;53.188;8.696;2023-07-20T12:05:26;3.90;;;1.00;;
16845;SDS011;8539;53.188;8.696;2023-07-20T12:07:52;1.63;;;0.90;;
16845;SDS011;8539;53.188;8.696;2023-07-20T12:10:24;1.90;;;1.55;;
16845;SDS011;8539;53.188;8.696;2023-07-20T12:12:51;1.45;;;0.70;;
16845;SDS011;8539;53.188;8.696;2023-07-20T12:17:55;1.25;;;0.90;;
16845;SDS011;8539;53.188;8.696;2023-07-20T12:20:26;2.33;;;0.98;;
16845;SDS011;8539;53.188;8.696;2023-07-20T12:22:59;5.38;;;1.17;;
16845;SDS011;8539;53.188;8.696;2023-07-20T12:25:34;1.40;;;0.93;;
16845;SDS011;8539;53.188;8.696;2023-07-20T12:28:10;2.10;;;1.15;;
16845;SDS011;8539;53.188;8.696;2023-07-20T12:30:39;1.75;;;0.80;;
16845;SDS011;8539;53.188;8.696;2023-07-20T12:33:07;2.33;;;1.00;;
16845;SDS011;8539;53.188;8.696;2023-07-20T12:35:33;1.48;;;0.85;;
16845;SDS011;8539;53.188;8.696;2023-07-20T12:38:00;2.17;;;1.00;;
16845;SDS011;8539;53.188;8.696;2023-07-20T12:40:26;1.73;;;0.93;;
16845;SDS011;8539;53.188;8.696;2023-07-20T12:42:53;1.27;;;0.88;;
16845;SDS011;8539;53.188;8.696;2023-07-20T12:45:19;3.78;;;1.02;;
16845;SDS011;8539;53.188;8.696;2023-07-20T12:47:45;2.38;;;0.70;;
16845;SDS011;8539;53.188;8.696;2023-07-20T12:50:11;2.88;;;0.98;;
16845;SDS011;8539;53.188;8.696;2023-07-20T12:52:38;1.98;;;0.85;;
16845;SDS011;8539;53.188;8.696;2023-07-20T12:55:05;2.75;;;1.05;;
16845;SDS011;8539;53.188;8.696;2023-07-20T12:57:36;0.95;;;0.82;;
16845;SDS011;8539;53.188;8.696;2023-07-20T13:00:04;3.28;;;1.17;;
16845;SDS011;8539;53.188;8.696;2023-07-20T13:02:34;2.83;;;0.95;;
16845;SDS011;8539;53.188;8.696;2023-07-20T13:05:01;3.17;;;0.93;;
16845;SDS011;8539;53.188;8.696;2023-07-20T13:07:31;3.60;;;1.02;;
16845;SDS011;8539;53.188;8.696;2023-07-20T13:09:59;3.53;;;1.40;;
16845;SDS011;8539;53.188;8.696;2023-07-20T13:12:27;3.83;;;1.38;;
16845;SDS011;8539;53.188;8.696;2023-07-20T13:14:54;1.58;;;0.70;;
16845;SDS011;8539;53.188;8.696;2023-07-20T13:17:22;3.15;;;1.20;;
16845;SDS011;8539;53.188;8.696;2023-07-20T13:19:48;4.10;;;0.95;;
16845;SDS011;8539;53.188;8.696;2023-07-20T13:22:15;1.85;;;1.05;;
16845;SDS011;8539;53.188;8.696;2023-07-20T13:24:41;2.35;;;1.27;;
16845;SDS011;8539;53.188;8.696;2023-07-20T13:27:10;1.92;;;1.60;;
16845;SDS011;8539;53.188;8.696;2023-07-20T13:29:36;1.27;;;0.82;;
16845;SDS011;8539;53.188;8.696;2023-07-20T13:32:02;4.63;;;1.00;;
16845;SDS011;8539;53.188;8.696;2023-07-20T13:34:30;4.15;;;1.55;;
16845;SDS011;8539;53.188;8.696;2023-07-20T13:36:56;2.58;;;1.10;;
16845;SDS011;8539;53.188;8.696;2023-07-20T13:39:22;2.90;;;1.02;;
16845;SDS011;8539;53.188;8.696;2023-07-20T13:41:51;4.68;;;1.50;;
16845;SDS011;8539;53.188;8.696;2023-07-20T13:44:17;4.00;;;1.30;;
16845;SDS011;8539;53.188;8.696;2023-07-20T13:46:43;3.78;;;1.17;;
16845;SDS011;8539;53.188;8.696;2023-07-20T13:49:09;2.42;;;0.90;;
16845;SDS011;8539;53.188;8.696;2023-07-20T13:51:36;4.38;;;1.30;;
16845;SDS011;8539;53.188;8.696;2023-07-20T13:54:02;2.72;;;0.95;;
16845;SDS011;8539;53.188;8.696;2023-07-20T13:56:28;2.70;;;1.00;;
16845;SDS011;8539;53.188;8.696;2023-07-20T13:58:54;2.88;;;1.10;;
16845;SDS011;8539;53.188;8.696;2023-07-20T14:01:20;1.58;;;0.93;;
16845;SDS011;8539;53.188;8.696;2023-07-20T14:03:48;3.92;;;1.23;;
16845;SDS011;8539;53.188;8.696;2023-07-20T14:06:15;3.75;;;1.00;;
16845;SDS011;8539;53.188;8.696;2023-07-20T14:08:41;6.35;;;1.00;;
16845;SDS011;8539;53.188;8.696;2023-07-20T14:11:07;3.10;;;1.38;;
16845;SDS011;8539;53.188;8.696;2023-07-20T14:13:33;2.40;;;1.08;;
16845;SDS011;8539;53.188;8.696;2023-07-20T14:15:59;5.47;;;0.95;;
16845;SDS011;8539;53.188;8.696;2023-07-20T14:18:26;0.90;;;0.88;;
16845;SDS011;8539;53.188;8.696;2023-07-20T14:20:52;1.52;;;1.10;;
16845;SDS011;8539;53.188;8.696;2023-07-20T14:23:19;4.85;;;1.00;;
16845;SDS011;8539;53.188;8.696;2023-07-20T14:25:45;3.97;;;1.40;;
16845;SDS011;8539;53.188;8.696;2023-07-20T14:28:11;1.52;;;0.80;;
16845;SDS011;8539;53.188;8.696;2023-07-20T14:30:38;5.53;;;1.27;;
16845;SDS011;8539;53.188;8.696;2023-07-20T14:33:04;9.23;;;1.20;;
16845;SDS011;8539;53.188;8.696;2023-07-20T14:35:30;2.38;;;1.20;;
16845;SDS011;8539;53.188;8.696;2023-07-20T14:37:56;3.22;;;1.30;;
16845;SDS011;8539;53.188;8.696;2023-07-20T14:40:23;4.57;;;2.00;;
16845;SDS011;8539;53.188;8.696;2023-07-20T14:42:49;2.88;;;1.20;;
16845;SDS011;8539;53.188;8.696;2023-07-20T14:45:15;4.10;;;1.27;;
16845;SDS011;8539;53.188;8.696;2023-07-20T14:47:42;5.07;;;1.48;;
16845;SDS011;8539;53.188;8.696;2023-07-20T14:50:08;5.20;;;2.25;;
16845;SDS011;8539;53.188;8.696;2023-07-20T14:52:35;3.33;;;1.10;;
16845;SDS011;8539;53.188;8.696;2023-07-20T14:55:02;3.90;;;0.93;;
16845;SDS011;8539;53.188;8.696;2023-07-20T14:57:28;3.85;;;1.67;;
16845;SDS011;8539;53.188;8.696;2023-07-20T15:00:00;3.67;;;1.23;;
16845;SDS011;8539;53.188;8.696;2023-07-20T15:02:40;7.63;;;1.75;;
16845;SDS011;8539;53.188;8.696;2023-07-20T15:05:06;2.47;;;1.00;;
16845;SDS011;8539;53.188;8.696;2023-07-20T15:07:50;3.55;;;1.25;;
16845;SDS011;8539;53.188;8.696;2023-07-20T15:10:16;2.08;;;1.00;;
16845;SDS011;8539;53.188;8.696;2023-07-20T15:12:42;1.40;;;0.82;;
16845;SDS011;8539;53.188;8.696;2023-07-20T15:15:09;9.60;;;1.77;;
16845;SDS011;8539;53.188;8.696;2023-07-20T15:17:37;2.80;;;1.02;;
16845;SDS011;8539;53.188;8.696;2023-07-20T15:20:04;6.22;;;1.05;;
16845;SDS011;8539;53.188;8.696;2023-07-20T15:22:32;1.52;;;0.90;;
16845;SDS011;8539;53.188;8.696;2023-07-20T15:24:59;3.03;;;1.25;;
16845;SDS011;8539;53.188;8.696;2023-07-20T15:27:26;1.98;;;1.50;;
16845;SDS011;8539;53.188;8.696;2023-07-20T15:29:52;2.50;;;1.15;;
16845;SDS011;8539;53.188;8.696;2023-07-20T15:32:18;2.95;;;1.08;;
16845;SDS011;8539;53.188;8.696;2023-07-20T15:34:44;2.20;;;1.10;;
16845;SDS011;8539;53.188;8.696;2023-07-20T15:37:11;4.32;;;1.30;;
16845;SDS011;8539;53.188;8.696;2023-07-20T15:39:38;4.03;;;1.75;;